Adkins, Texas
Current Conditions -  °F | °C
As of 3:58 AM on Wednesday 22 Oct 2014 (Local Time) from KRND Reporting Station
Broken Clouds Broken Clouds  
Wind Chill: 16°   Ceiling: 20000
Heat Index: 16°   Visibility: 10mi
Dew Point: 10°   Wind: 5mph
Humidity: 69%   Direction: 350°N
Pressure: 30.04"   Gusts: NA
Location:  29.39°N, 98.24°W
Report Text: KRND 220858Z AUTO 35004KT 10SM FEW180 BKN200 16/10 A3004 RMK AO2 SLP167 T01580102 55003
Loading
Personal Weather Stations






























Interactive Weather Map
Tropical Storm Tracking
New forecast layout! Learn more

10-Day Weather Forecast

Advertisements
Track Severe Weather on mobile